sensor_id;sensor_type;location;lat;lon;timestamp;P1;durP1;ratioP1;P2;durP2;ratioP2
20844;SDS011;10583;49.084;8.646;2023-07-08T00:00:15;7.47;;;7.47;;
20844;SDS011;10583;49.084;8.646;2023-07-08T00:02:47;7.47;;;7.47;;
20844;SDS011;10583;49.084;8.646;2023-07-08T00:05:18;7.83;;;7.83;;
20844;SDS011;10583;49.084;8.646;2023-07-08T00:07:49;7.60;;;7.60;;
20844;SDS011;10583;49.084;8.646;2023-07-08T00:10:18;7.77;;;7.77;;
20844;SDS011;10583;49.084;8.646;2023-07-08T00:12:48;7.67;;;7.67;;
20844;SDS011;10583;49.084;8.646;2023-07-08T00:15:17;7.70;;;7.70;;
20844;SDS011;10583;49.084;8.646;2023-07-08T00:17:44;7.77;;;7.77;;
20844;SDS011;10583;49.084;8.646;2023-07-08T00:20:12;8.00;;;8.00;;
20844;SDS011;10583;49.084;8.646;2023-07-08T00:22:42;7.50;;;7.47;;
20844;SDS011;10583;49.084;8.646;2023-07-08T00:25:12;7.87;;;7.87;;
20844;SDS011;10583;49.084;8.646;2023-07-08T00:27:39;7.80;;;7.80;;
20844;SDS011;10583;49.084;8.646;2023-07-08T00:30:17;7.30;;;7.30;;
20844;SDS011;10583;49.084;8.646;2023-07-08T00:32:47;7.63;;;7.63;;
20844;SDS011;10583;49.084;8.646;2023-07-08T00:35:19;8.10;;;8.10;;
20844;SDS011;10583;49.084;8.646;2023-07-08T00:37:53;7.50;;;7.50;;
20844;SDS011;10583;49.084;8.646;2023-07-08T00:40:26;7.73;;;7.73;;
20844;SDS011;10583;49.084;8.646;2023-07-08T00:42:55;7.17;;;7.17;;
20844;SDS011;10583;49.084;8.646;2023-07-08T00:45:29;7.53;;;7.53;;
20844;SDS011;10583;49.084;8.646;2023-07-08T00:48:04;7.60;;;7.60;;
20844;SDS011;10583;49.084;8.646;2023-07-08T00:50:35;8.60;;;8.60;;
20844;SDS011;10583;49.084;8.646;2023-07-08T00:55:50;7.33;;;7.33;;
20844;SDS011;10583;49.084;8.646;2023-07-08T00:58:20;7.33;;;7.33;;
20844;SDS011;10583;49.084;8.646;2023-07-08T01:00:51;7.80;;;7.80;;
20844;SDS011;10583;49.084;8.646;2023-07-08T01:03:22;7.73;;;7.73;;
20844;SDS011;10583;49.084;8.646;2023-07-08T01:05:52;7.97;;;7.97;;
20844;SDS011;10583;49.084;8.646;2023-07-08T01:08:23;7.40;;;7.40;;
20844;SDS011;10583;49.084;8.646;2023-07-08T01:10:53;7.27;;;7.27;;
20844;SDS011;10583;49.084;8.646;2023-07-08T01:13:26;7.60;;;7.60;;
20844;SDS011;10583;49.084;8.646;2023-07-08T01:15:55;8.17;;;8.17;;
20844;SDS011;10583;49.084;8.646;2023-07-08T01:18:24;7.73;;;7.73;;
20844;SDS011;10583;49.084;8.646;2023-07-08T01:20:51;7.33;;;7.33;;
20844;SDS011;10583;49.084;8.646;2023-07-08T01:23:22;7.80;;;7.80;;
20844;SDS011;10583;49.084;8.646;2023-07-08T01:25:49;7.53;;;7.53;;
20844;SDS011;10583;49.084;8.646;2023-07-08T01:28:17;8.00;;;8.00;;
20844;SDS011;10583;49.084;8.646;2023-07-08T01:30:44;7.23;;;7.23;;
20844;SDS011;10583;49.084;8.646;2023-07-08T01:33:14;7.83;;;7.83;;
20844;SDS011;10583;49.084;8.646;2023-07-08T01:35:45;7.87;;;7.87;;
20844;SDS011;10583;49.084;8.646;2023-07-08T01:38:14;7.97;;;7.97;;
20844;SDS011;10583;49.084;8.646;2023-07-08T01:40:50;7.60;;;7.60;;
20844;SDS011;10583;49.084;8.646;2023-07-08T01:43:18;7.90;;;7.90;;
20844;SDS011;10583;49.084;8.646;2023-07-08T01:45:45;7.40;;;7.40;;
20844;SDS011;10583;49.084;8.646;2023-07-08T01:48:16;7.43;;;7.43;;
20844;SDS011;10583;49.084;8.646;2023-07-08T01:50:47;7.97;;;7.97;;
20844;SDS011;10583;49.084;8.646;2023-07-08T01:53:19;8.30;;;8.30;;
20844;SDS011;10583;49.084;8.646;2023-07-08T01:55:49;8.50;;;8.50;;
20844;SDS011;10583;49.084;8.646;2023-07-08T01:58:16;8.10;;;8.10;;
20844;SDS011;10583;49.084;8.646;2023-07-08T02:00:42;7.73;;;7.73;;
20844;SDS011;10583;49.084;8.646;2023-07-08T02:03:09;6.97;;;6.97;;
20844;SDS011;10583;49.084;8.646;2023-07-08T02:05:36;7.57;;;7.57;;
20844;SDS011;10583;49.084;8.646;2023-07-08T02:08:03;7.60;;;7.60;;
20844;SDS011;10583;49.084;8.646;2023-07-08T02:10:30;7.90;;;7.90;;
20844;SDS011;10583;49.084;8.646;2023-07-08T02:12:58;7.20;;;7.20;;
20844;SDS011;10583;49.084;8.646;2023-07-08T02:15:25;7.33;;;7.33;;
20844;SDS011;10583;49.084;8.646;2023-07-08T02:17:52;7.63;;;7.63;;
20844;SDS011;10583;49.084;8.646;2023-07-08T02:20:19;7.47;;;7.47;;
20844;SDS011;10583;49.084;8.646;2023-07-08T02:22:46;7.37;;;7.37;;
20844;SDS011;10583;49.084;8.646;2023-07-08T02:25:13;7.93;;;7.93;;
20844;SDS011;10583;49.084;8.646;2023-07-08T02:27:41;7.30;;;7.30;;
20844;SDS011;10583;49.084;8.646;2023-07-08T02:30:09;7.30;;;7.30;;
20844;SDS011;10583;49.084;8.646;2023-07-08T02:32:36;7.87;;;7.87;;
20844;SDS011;10583;49.084;8.646;2023-07-08T02:35:04;7.10;;;7.10;;
20844;SDS011;10583;49.084;8.646;2023-07-08T02:37:32;7.70;;;7.70;;
20844;SDS011;10583;49.084;8.646;2023-07-08T02:39:59;8.03;;;8.03;;
20844;SDS011;10583;49.084;8.646;2023-07-08T02:42:26;7.70;;;7.70;;
20844;SDS011;10583;49.084;8.646;2023-07-08T02:44:53;7.90;;;7.90;;
20844;SDS011;10583;49.084;8.646;2023-07-08T02:47:21;7.27;;;7.27;;
20844;SDS011;10583;49.084;8.646;2023-07-08T02:49:48;7.97;;;7.97;;
20844;SDS011;10583;49.084;8.646;2023-07-08T02:52:15;7.40;;;7.40;;
20844;SDS011;10583;49.084;8.646;2023-07-08T02:54:42;7.70;;;7.70;;
20844;SDS011;10583;49.084;8.646;2023-07-08T02:57:09;7.67;;;7.67;;
20844;SDS011;10583;49.084;8.646;2023-07-08T02:59:36;7.90;;;7.90;;
20844;SDS011;10583;49.084;8.646;2023-07-08T03:02:03;7.23;;;7.23;;
20844;SDS011;10583;49.084;8.646;2023-07-08T03:04:31;7.47;;;7.47;;
20844;SDS011;10583;49.084;8.646;2023-07-08T03:07:00;8.50;;;8.50;;
20844;SDS011;10583;49.084;8.646;2023-07-08T03:09:27;7.53;;;7.53;;
20844;SDS011;10583;49.084;8.646;2023-07-08T03:11:54;7.80;;;7.80;;
20844;SDS011;10583;49.084;8.646;2023-07-08T03:14:21;7.67;;;7.67;;
20844;SDS011;10583;49.084;8.646;2023-07-08T03:16:48;7.57;;;7.57;;
20844;SDS011;10583;49.084;8.646;2023-07-08T03:19:15;7.30;;;7.30;;
20844;SDS011;10583;49.084;8.646;2023-07-08T03:21:43;7.50;;;7.50;;
20844;SDS011;10583;49.084;8.646;2023-07-08T03:24:10;7.80;;;7.80;;
20844;SDS011;10583;49.084;8.646;2023-07-08T03:26:38;7.83;;;7.83;;
20844;SDS011;10583;49.084;8.646;2023-07-08T03:29:05;7.93;;;7.93;;
20844;SDS011;10583;49.084;8.646;2023-07-08T03:31:32;7.37;;;7.37;;
20844;SDS011;10583;49.084;8.646;2023-07-08T03:33:59;8.40;;;8.40;;
20844;SDS011;10583;49.084;8.646;2023-07-08T03:36:26;7.97;;;7.97;;
20844;SDS011;10583;49.084;8.646;2023-07-08T03:38:55;7.90;;;7.90;;
20844;SDS011;10583;49.084;8.646;2023-07-08T03:41:23;8.23;;;8.23;;
20844;SDS011;10583;49.084;8.646;2023-07-08T03:43:50;7.90;;;7.90;;
20844;SDS011;10583;49.084;8.646;2023-07-08T03:46:18;7.97;;;7.97;;
20844;SDS011;10583;49.084;8.646;2023-07-08T03:48:46;7.70;;;7.70;;
20844;SDS011;10583;49.084;8.646;2023-07-08T03:51:14;7.97;;;7.97;;
20844;SDS011;10583;49.084;8.646;2023-07-08T03:53:47;7.30;;;7.30;;
20844;SDS011;10583;49.084;8.646;2023-07-08T03:56:15;7.27;;;7.27;;
20844;SDS011;10583;49.084;8.646;2023-07-08T03:58:42;7.00;;;7.00;;
20844;SDS011;10583;49.084;8.646;2023-07-08T04:01:10;7.63;;;7.63;;
20844;SDS011;10583;49.084;8.646;2023-07-08T04:03:41;7.23;;;7.23;;
20844;SDS011;10583;49.084;8.646;2023-07-08T04:06:08;7.03;;;7.03;;
20844;SDS011;10583;49.084;8.646;2023-07-08T04:08:35;6.97;;;6.97;;
20844;SDS011;10583;49.084;8.646;2023-07-08T04:11:02;7.03;;;7.03;;
20844;SDS011;10583;49.084;8.646;2023-07-08T04:13:30;7.00;;;7.00;;
20844;SDS011;10583;49.084;8.646;2023-07-08T04:15:59;7.33;;;7.33;;
20844;SDS011;10583;49.084;8.646;2023-07-08T04:18:28;8.27;;;8.27;;
20844;SDS011;10583;49.084;8.646;2023-07-08T04:20:55;7.37;;;7.37;;
20844;SDS011;10583;49.084;8.646;2023-07-08T04:23:24;7.10;;;7.10;;
20844;SDS011;10583;49.084;8.646;2023-07-08T04:25:52;6.97;;;6.97;;
20844;SDS011;10583;49.084;8.646;2023-07-08T04:28:22;7.33;;;7.33;;
20844;SDS011;10583;49.084;8.646;2023-07-08T04:30:50;7.43;;;7.43;;
20844;SDS011;10583;49.084;8.646;2023-07-08T04:33:17;6.90;;;6.90;;
20844;SDS011;10583;49.084;8.646;2023-07-08T04:35:44;7.37;;;7.37;;
20844;SDS011;10583;49.084;8.646;2023-07-08T04:38:14;7.73;;;7.73;;
20844;SDS011;10583;49.084;8.646;2023-07-08T04:40:44;6.97;;;6.97;;
20844;SDS011;10583;49.084;8.646;2023-07-08T04:43:11;7.67;;;7.67;;
20844;SDS011;10583;49.084;8.646;2023-07-08T04:45:38;7.47;;;7.47;;
20844;SDS011;10583;49.084;8.646;2023-07-08T04:48:08;7.57;;;7.57;;
20844;SDS011;10583;49.084;8.646;2023-07-08T04:50:39;7.70;;;7.70;;
20844;SDS011;10583;49.084;8.646;2023-07-08T04:53:07;7.13;;;7.13;;
20844;SDS011;10583;49.084;8.646;2023-07-08T04:55:34;7.17;;;7.17;;
20844;SDS011;10583;49.084;8.646;2023-07-08T04:58:02;6.23;;;6.23;;
20844;SDS011;10583;49.084;8.646;2023-07-08T05:00:29;8.17;;;8.17;;
20844;SDS011;10583;49.084;8.646;2023-07-08T05:02:56;7.23;;;7.23;;
20844;SDS011;10583;49.084;8.646;2023-07-08T05:05:25;7.07;;;7.07;;
20844;SDS011;10583;49.084;8.646;2023-07-08T05:07:52;7.37;;;7.37;;
20844;SDS011;10583;49.084;8.646;2023-07-08T05:10:19;6.83;;;6.83;;
20844;SDS011;10583;49.084;8.646;2023-07-08T05:12:46;7.13;;;7.13;;
20844;SDS011;10583;49.084;8.646;2023-07-08T05:15:13;7.00;;;7.00;;
20844;SDS011;10583;49.084;8.646;2023-07-08T05:17:41;7.27;;;7.27;;
20844;SDS011;10583;49.084;8.646;2023-07-08T05:20:10;7.20;;;7.20;;
20844;SDS011;10583;49.084;8.646;2023-07-08T05:22:40;6.93;;;6.93;;
20844;SDS011;10583;49.084;8.646;2023-07-08T05:25:08;7.40;;;7.40;;
20844;SDS011;10583;49.084;8.646;2023-07-08T05:27:35;7.43;;;7.43;;
20844;SDS011;10583;49.084;8.646;2023-07-08T05:30:03;7.40;;;7.40;;
20844;SDS011;10583;49.084;8.646;2023-07-08T05:32:31;7.70;;;7.70;;
20844;SDS011;10583;49.084;8.646;2023-07-08T05:34:58;7.20;;;7.20;;
20844;SDS011;10583;49.084;8.646;2023-07-08T05:37:25;7.38;;;7.38;;
20844;SDS011;10583;49.084;8.646;2023-07-08T05:39:55;6.53;;;6.53;;
20844;SDS011;10583;49.084;8.646;2023-07-08T05:42:25;7.38;;;7.38;;
20844;SDS011;10583;49.084;8.646;2023-07-08T05:44:52;7.05;;;7.05;;
20844;SDS011;10583;49.084;8.646;2023-07-08T05:47:20;7.32;;;7.32;;
20844;SDS011;10583;49.084;8.646;2023-07-08T05:49:47;7.45;;;7.45;;
20844;SDS011;10583;49.084;8.646;2023-07-08T05:52:14;6.82;;;6.82;;
20844;SDS011;10583;49.084;8.646;2023-07-08T05:54:41;7.10;;;7.10;;
20844;SDS011;10583;49.084;8.646;2023-07-08T05:57:10;7.40;;;7.40;;
20844;SDS011;10583;49.084;8.646;2023-07-08T05:59:37;6.45;;;6.45;;
20844;SDS011;10583;49.084;8.646;2023-07-08T06:02:05;7.15;;;7.15;;
20844;SDS011;10583;49.084;8.646;2023-07-08T06:04:33;6.60;;;6.60;;
20844;SDS011;10583;49.084;8.646;2023-07-08T06:07:00;7.35;;;7.35;;
20844;SDS011;10583;49.084;8.646;2023-07-08T06:09:27;7.45;;;7.45;;
20844;SDS011;10583;49.084;8.646;2023-07-08T06:11:54;6.25;;;6.25;;
20844;SDS011;10583;49.084;8.646;2023-07-08T06:14:22;7.13;;;7.13;;
20844;SDS011;10583;49.084;8.646;2023-07-08T06:16:49;6.25;;;6.25;;
20844;SDS011;10583;49.084;8.646;2023-07-08T06:19:17;6.97;;;6.97;;
20844;SDS011;10583;49.084;8.646;2023-07-08T06:21:44;6.30;;;6.30;;
20844;SDS011;10583;49.084;8.646;2023-07-08T06:24:11;6.13;;;6.13;;
20844;SDS011;10583;49.084;8.646;2023-07-08T06:26:38;5.60;;;5.60;;
20844;SDS011;10583;49.084;8.646;2023-07-08T06:29:05;5.70;;;5.70;;
20844;SDS011;10583;49.084;8.646;2023-07-08T06:31:33;6.03;;;6.03;;
20844;SDS011;10583;49.084;8.646;2023-07-08T06:34:00;6.25;;;6.25;;
20844;SDS011;10583;49.084;8.646;2023-07-08T06:36:27;6.80;;;6.80;;
20844;SDS011;10583;49.084;8.646;2023-07-08T06:38:54;6.30;;;6.30;;
20844;SDS011;10583;49.084;8.646;2023-07-08T06:41:21;6.53;;;6.53;;
20844;SDS011;10583;49.084;8.646;2023-07-08T06:43:48;6.97;;;6.97;;
20844;SDS011;10583;49.084;8.646;2023-07-08T06:46:16;6.60;;;6.60;;
20844;SDS011;10583;49.084;8.646;2023-07-08T06:48:45;6.38;;;6.38;;
20844;SDS011;10583;49.084;8.646;2023-07-08T06:51:12;5.93;;;5.93;;
20844;SDS011;10583;49.084;8.646;2023-07-08T06:53:39;5.88;;;5.88;;
20844;SDS011;10583;49.084;8.646;2023-07-08T06:56:06;6.35;;;6.35;;
20844;SDS011;10583;49.084;8.646;2023-07-08T06:58:33;6.43;;;6.43;;
20844;SDS011;10583;49.084;8.646;2023-07-08T07:01:00;6.13;;;6.13;;
20844;SDS011;10583;49.084;8.646;2023-07-08T07:03:27;5.55;;;5.55;;
20844;SDS011;10583;49.084;8.646;2023-07-08T07:05:56;5.80;;;5.80;;
20844;SDS011;10583;49.084;8.646;2023-07-08T07:08:23;5.75;;;5.75;;
20844;SDS011;10583;49.084;8.646;2023-07-08T07:10:50;5.65;;;5.65;;
20844;SDS011;10583;49.084;8.646;2023-07-08T07:13:16;5.60;;;5.60;;
20844;SDS011;10583;49.084;8.646;2023-07-08T07:15:43;5.55;;;5.55;;
20844;SDS011;10583;49.084;8.646;2023-07-08T07:18:10;5.57;;;5.57;;
20844;SDS011;10583;49.084;8.646;2023-07-08T07:20:37;5.55;;;5.55;;
20844;SDS011;10583;49.084;8.646;2023-07-08T07:23:05;5.28;;;5.28;;
20844;SDS011;10583;49.084;8.646;2023-07-08T07:25:32;5.15;;;5.15;;
20844;SDS011;10583;49.084;8.646;2023-07-08T07:28:00;5.45;;;5.45;;
20844;SDS011;10583;49.084;8.646;2023-07-08T07:30:27;5.25;;;5.25;;
20844;SDS011;10583;49.084;8.646;2023-07-08T07:32:54;5.05;;;5.05;;
20844;SDS011;10583;49.084;8.646;2023-07-08T07:35:25;4.60;;;4.60;;
20844;SDS011;10583;49.084;8.646;2023-07-08T07:37:51;5.13;;;5.13;;
20844;SDS011;10583;49.084;8.646;2023-07-08T07:40:20;4.50;;;4.50;;
20844;SDS011;10583;49.084;8.646;2023-07-08T07:42:46;4.80;;;4.80;;
20844;SDS011;10583;49.084;8.646;2023-07-08T07:45:13;4.97;;;4.97;;
20844;SDS011;10583;49.084;8.646;2023-07-08T07:47:40;5.05;;;5.05;;
20844;SDS011;10583;49.084;8.646;2023-07-08T07:50:08;4.38;;;4.38;;
20844;SDS011;10583;49.084;8.646;2023-07-08T07:52:35;5.00;;;5.00;;
20844;SDS011;10583;49.084;8.646;2023-07-08T07:55:03;4.47;;;4.47;;
20844;SDS011;10583;49.084;8.646;2023-07-08T07:57:31;5.13;;;5.13;;
20844;SDS011;10583;49.084;8.646;2023-07-08T07:59:58;4.43;;;4.43;;
20844;SDS011;10583;49.084;8.646;2023-07-08T08:02:24;4.40;;;4.40;;
20844;SDS011;10583;49.084;8.646;2023-07-08T08:04:51;4.55;;;4.55;;
20844;SDS011;10583;49.084;8.646;2023-07-08T08:07:18;4.40;;;4.40;;
20844;SDS011;10583;49.084;8.646;2023-07-08T08:09:45;4.78;;;4.78;;
20844;SDS011;10583;49.084;8.646;2023-07-08T08:12:12;4.43;;;4.43;;
20844;SDS011;10583;49.084;8.646;2023-07-08T08:14:40;4.22;;;4.22;;
20844;SDS011;10583;49.084;8.646;2023-07-08T08:17:06;4.68;;;4.68;;
20844;SDS011;10583;49.084;8.646;2023-07-08T08:19:33;4.95;;;4.95;;
20844;SDS011;10583;49.084;8.646;2023-07-08T08:22:00;4.93;;;4.93;;
20844;SDS011;10583;49.084;8.646;2023-07-08T08:24:26;4.30;;;4.30;;
20844;SDS011;10583;49.084;8.646;2023-07-08T08:26:53;4.70;;;4.70;;
20844;SDS011;10583;49.084;8.646;2023-07-08T08:29:20;4.68;;;4.68;;
20844;SDS011;10583;49.084;8.646;2023-07-08T08:31:48;4.20;;;4.20;;
20844;SDS011;10583;49.084;8.646;2023-07-08T08:34:15;4.72;;;4.72;;
20844;SDS011;10583;49.084;8.646;2023-07-08T08:36:42;4.60;;;4.60;;
20844;SDS011;10583;49.084;8.646;2023-07-08T08:39:09;4.95;;;4.95;;
20844;SDS011;10583;49.084;8.646;2023-07-08T08:41:37;4.32;;;4.32;;
20844;SDS011;10583;49.084;8.646;2023-07-08T08:44:06;4.40;;;4.40;;
20844;SDS011;10583;49.084;8.646;2023-07-08T08:46:40;4.10;;;4.10;;
20844;SDS011;10583;49.084;8.646;2023-07-08T08:49:16;4.25;;;4.25;;
20844;SDS011;10583;49.084;8.646;2023-07-08T08:51:49;3.90;;;3.90;;
20844;SDS011;10583;49.084;8.646;2023-07-08T08:54:16;3.78;;;3.78;;
20844;SDS011;10583;49.084;8.646;2023-07-08T08:56:45;3.80;;;3.80;;
20844;SDS011;10583;49.084;8.646;2023-07-08T08:59:23;3.70;;;3.70;;
20844;SDS011;10583;49.084;8.646;2023-07-08T09:01:56;3.60;;;3.60;;
20844;SDS011;10583;49.084;8.646;2023-07-08T09:04:27;3.33;;;3.33;;
20844;SDS011;10583;49.084;8.646;2023-07-08T09:07:00;2.72;;;2.72;;
20844;SDS011;10583;49.084;8.646;2023-07-08T09:09:35;2.92;;;2.92;;
20844;SDS011;10583;49.084;8.646;2023-07-08T09:12:09;2.50;;;2.50;;
20844;SDS011;10583;49.084;8.646;2023-07-08T09:14:40;2.55;;;2.55;;
20844;SDS011;10583;49.084;8.646;2023-07-08T09:17:14;2.05;;;2.05;;
20844;SDS011;10583;49.084;8.646;2023-07-08T09:19:46;2.30;;;2.30;;
20844;SDS011;10583;49.084;8.646;2023-07-08T09:22:19;2.17;;;2.17;;
20844;SDS011;10583;49.084;8.646;2023-07-08T09:24:51;2.17;;;2.17;;
20844;SDS011;10583;49.084;8.646;2023-07-08T09:27:22;2.50;;;2.50;;
20844;SDS011;10583;49.084;8.646;2023-07-08T09:29:49;2.42;;;2.42;;
20844;SDS011;10583;49.084;8.646;2023-07-08T09:32:16;2.65;;;2.65;;
20844;SDS011;10583;49.084;8.646;2023-07-08T09:34:49;2.28;;;2.28;;
20844;SDS011;10583;49.084;8.646;2023-07-08T09:37:24;2.30;;;2.30;;
20844;SDS011;10583;49.084;8.646;2023-07-08T09:39:52;1.70;;;1.70;;
20844;SDS011;10583;49.084;8.646;2023-07-08T09:42:20;1.48;;;1.48;;
20844;SDS011;10583;49.084;8.646;2023-07-08T09:44:54;1.60;;;1.60;;
20844;SDS011;10583;49.084;8.646;2023-07-08T09:47:23;1.58;;;1.58;;
20844;SDS011;10583;49.084;8.646;2023-07-08T09:49:54;1.50;;;1.50;;
20844;SDS011;10583;49.084;8.646;2023-07-08T09:52:21;1.60;;;1.60;;
20844;SDS011;10583;49.084;8.646;2023-07-08T09:54:48;1.70;;;1.70;;
20844;SDS011;10583;49.084;8.646;2023-07-08T09:57:19;1.52;;;1.52;;
20844;SDS011;10583;49.084;8.646;2023-07-08T09:59:52;1.63;;;1.63;;
20844;SDS011;10583;49.084;8.646;2023-07-08T10:02:27;1.67;;;1.67;;
20844;SDS011;10583;49.084;8.646;2023-07-08T10:04:58;2.00;;;2.00;;
20844;SDS011;10583;49.084;8.646;2023-07-08T10:07:27;1.95;;;1.95;;
20844;SDS011;10583;49.084;8.646;2023-07-08T10:09:57;2.03;;;2.03;;
20844;SDS011;10583;49.084;8.646;2023-07-08T10:12:26;2.08;;;2.08;;
20844;SDS011;10583;49.084;8.646;2023-07-08T10:14:56;1.60;;;1.60;;
20844;SDS011;10583;49.084;8.646;2023-07-08T10:17:25;2.28;;;2.28;;
20844;SDS011;10583;49.084;8.646;2023-07-08T10:19:52;1.90;;;1.90;;
20844;SDS011;10583;49.084;8.646;2023-07-08T10:22:24;1.98;;;1.98;;
20844;SDS011;10583;49.084;8.646;2023-07-08T10:25:06;1.80;;;1.80;;
20844;SDS011;10583;49.084;8.646;2023-07-08T10:27:46;1.83;;;1.83;;
20844;SDS011;10583;49.084;8.646;2023-07-08T10:30:25;1.85;;;1.85;;
20844;SDS011;10583;49.084;8.646;2023-07-08T10:36:05;1.98;;;1.98;;
20844;SDS011;10583;49.084;8.646;2023-07-08T10:38:43;2.20;;;2.20;;
20844;SDS011;10583;49.084;8.646;2023-07-08T10:41:21;2.10;;;2.10;;
20844;SDS011;10583;49.084;8.646;2023-07-08T10:44:11;1.77;;;1.77;;
20844;SDS011;10583;49.084;8.646;2023-07-08T10:46:55;1.58;;;1.58;;
20844;SDS011;10583;49.084;8.646;2023-07-08T10:49:31;2.00;;;2.00;;
20844;SDS011;10583;49.084;8.646;2023-07-08T10:52:16;1.95;;;1.95;;
20844;SDS011;10583;49.084;8.646;2023-07-08T10:55:15;2.08;;;2.08;;
20844;SDS011;10583;49.084;8.646;2023-07-08T10:57:59;2.20;;;2.20;;
20844;SDS011;10583;49.084;8.646;2023-07-08T11:00:39;1.90;;;1.90;;
20844;SDS011;10583;49.084;8.646;2023-07-08T11:03:23;2.03;;;2.03;;
20844;SDS011;10583;49.084;8.646;2023-07-08T11:06:06;2.03;;;2.03;;
20844;SDS011;10583;49.084;8.646;2023-07-08T11:08:37;2.30;;;2.30;;
20844;SDS011;10583;49.084;8.646;2023-07-08T11:11:09;1.90;;;1.90;;
20844;SDS011;10583;49.084;8.646;2023-07-08T11:13:54;2.70;;;2.70;;
20844;SDS011;10583;49.084;8.646;2023-07-08T11:16:26;2.50;;;2.50;;
20844;SDS011;10583;49.084;8.646;2023-07-08T11:19:00;2.60;;;2.60;;
20844;SDS011;10583;49.084;8.646;2023-07-08T11:21:34;2.30;;;2.30;;
20844;SDS011;10583;49.084;8.646;2023-07-08T11:24:06;2.40;;;2.40;;
20844;SDS011;10583;49.084;8.646;2023-07-08T11:26:41;2.58;;;2.58;;
20844;SDS011;10583;49.084;8.646;2023-07-08T11:29:13;2.42;;;2.42;;
20844;SDS011;10583;49.084;8.646;2023-07-08T11:31:44;2.53;;;2.53;;
20844;SDS011;10583;49.084;8.646;2023-07-08T11:34:13;3.05;;;3.05;;
20844;SDS011;10583;49.084;8.646;2023-07-08T11:36:43;2.67;;;2.67;;
20844;SDS011;10583;49.084;8.646;2023-07-08T11:39:27;2.60;;;2.60;;
20844;SDS011;10583;49.084;8.646;2023-07-08T11:42:06;2.75;;;2.75;;
20844;SDS011;10583;49.084;8.646;2023-07-08T11:44:42;2.70;;;2.70;;
20844;SDS011;10583;49.084;8.646;2023-07-08T11:47:13;2.80;;;2.80;;
20844;SDS011;10583;49.084;8.646;2023-07-08T11:49:45;2.65;;;2.65;;
20844;SDS011;10583;49.084;8.646;2023-07-08T11:52:14;2.53;;;2.53;;
20844;SDS011;10583;49.084;8.646;2023-07-08T11:54:45;2.80;;;2.80;;
20844;SDS011;10583;49.084;8.646;2023-07-08T11:57:17;2.55;;;2.55;;
20844;SDS011;10583;49.084;8.646;2023-07-08T11:59:57;2.65;;;2.65;;
20844;SDS011;10583;49.084;8.646;2023-07-08T12:02:47;2.70;;;2.70;;
20844;SDS011;10583;49.084;8.646;2023-07-08T12:05:18;2.70;;;2.70;;
20844;SDS011;10583;49.084;8.646;2023-07-08T12:07:56;2.63;;;2.63;;
20844;SDS011;10583;49.084;8.646;2023-07-08T12:10:26;2.53;;;2.53;;
20844;SDS011;10583;49.084;8.646;2023-07-08T12:12:55;2.80;;;2.80;;
20844;SDS011;10583;49.084;8.646;2023-07-08T12:15:22;2.60;;;2.60;;
20844;SDS011;10583;49.084;8.646;2023-07-08T12:17:52;2.90;;;2.90;;
20844;SDS011;10583;49.084;8.646;2023-07-08T12:20:22;3.15;;;3.15;;
20844;SDS011;10583;49.084;8.646;2023-07-08T12:22:52;2.78;;;2.78;;
20844;SDS011;10583;49.084;8.646;2023-07-08T12:25:20;2.67;;;2.67;;
20844;SDS011;10583;49.084;8.646;2023-07-08T12:27:49;2.63;;;2.63;;
20844;SDS011;10583;49.084;8.646;2023-07-08T12:30:17;2.67;;;2.67;;
20844;SDS011;10583;49.084;8.646;2023-07-08T12:32:44;2.67;;;2.67;;
20844;SDS011;10583;49.084;8.646;2023-07-08T12:35:16;2.72;;;2.72;;
20844;SDS011;10583;49.084;8.646;2023-07-08T12:37:48;2.70;;;2.70;;
20844;SDS011;10583;49.084;8.646;2023-07-08T12:40:14;2.80;;;2.80;;
20844;SDS011;10583;49.084;8.646;2023-07-08T12:42:41;2.85;;;2.85;;
20844;SDS011;10583;49.084;8.646;2023-07-08T12:45:14;2.70;;;2.70;;
20844;SDS011;10583;49.084;8.646;2023-07-08T12:47:44;2.88;;;2.88;;
20844;SDS011;10583;49.084;8.646;2023-07-08T12:50:12;2.95;;;2.95;;
20844;SDS011;10583;49.084;8.646;2023-07-08T12:52:39;2.72;;;2.72;;
20844;SDS011;10583;49.084;8.646;2023-07-08T12:55:09;2.90;;;2.90;;
20844;SDS011;10583;49.084;8.646;2023-07-08T12:57:36;2.50;;;2.50;;
20844;SDS011;10583;49.084;8.646;2023-07-08T13:00:04;2.80;;;2.80;;
20844;SDS011;10583;49.084;8.646;2023-07-08T13:02:33;2.60;;;2.60;;
20844;SDS011;10583;49.084;8.646;2023-07-08T13:05:00;3.03;;;3.03;;
20844;SDS011;10583;49.084;8.646;2023-07-08T13:07:33;2.70;;;2.70;;
20844;SDS011;10583;49.084;8.646;2023-07-08T13:10:02;3.05;;;3.05;;
20844;SDS011;10583;49.084;8.646;2023-07-08T13:12:30;2.70;;;2.70;;
20844;SDS011;10583;49.084;8.646;2023-07-08T13:15:00;2.78;;;2.78;;
20844;SDS011;10583;49.084;8.646;2023-07-08T13:17:29;2.92;;;2.92;;
20844;SDS011;10583;49.084;8.646;2023-07-08T13:19:57;2.70;;;2.70;;
20844;SDS011;10583;49.084;8.646;2023-07-08T13:22:24;2.70;;;2.70;;
20844;SDS011;10583;49.084;8.646;2023-07-08T13:24:58;2.70;;;2.70;;
20844;SDS011;10583;49.084;8.646;2023-07-08T13:27:26;2.70;;;2.70;;
20844;SDS011;10583;49.084;8.646;2023-07-08T13:29:54;2.42;;;2.42;;
20844;SDS011;10583;49.084;8.646;2023-07-08T13:32:28;2.78;;;2.78;;
20844;SDS011;10583;49.084;8.646;2023-07-08T13:34:58;2.72;;;2.72;;
20844;SDS011;10583;49.084;8.646;2023-07-08T13:37:24;2.90;;;2.90;;
20844;SDS011;10583;49.084;8.646;2023-07-08T13:39:51;3.00;;;3.00;;
20844;SDS011;10583;49.084;8.646;2023-07-08T13:42:20;2.90;;;2.90;;
20844;SDS011;10583;49.084;8.646;2023-07-08T13:44:47;3.10;;;3.10;;
20844;SDS011;10583;49.084;8.646;2023-07-08T13:47:19;3.00;;;3.00;;
20844;SDS011;10583;49.084;8.646;2023-07-08T13:49:47;3.20;;;3.20;;
20844;SDS011;10583;49.084;8.646;2023-07-08T13:52:19;2.95;;;2.95;;
20844;SDS011;10583;49.084;8.646;2023-07-08T13:54:49;2.70;;;2.70;;
20844;SDS011;10583;49.084;8.646;2023-07-08T13:57:19;3.45;;;3.45;;
20844;SDS011;10583;49.084;8.646;2023-07-08T13:59:47;2.60;;;2.60;;
20844;SDS011;10583;49.084;8.646;2023-07-08T14:02:14;2.70;;;2.70;;
20844;SDS011;10583;49.084;8.646;2023-07-08T14:04:45;2.83;;;2.83;;
20844;SDS011;10583;49.084;8.646;2023-07-08T14:07:13;3.25;;;3.25;;
20844;SDS011;10583;49.084;8.646;2023-07-08T14:09:44;2.75;;;2.75;;
20844;SDS011;10583;49.084;8.646;2023-07-08T14:12:11;2.97;;;2.97;;
20844;SDS011;10583;49.084;8.646;2023-07-08T14:14:38;2.85;;;2.85;;
20844;SDS011;10583;49.084;8.646;2023-07-08T14:17:05;2.63;;;2.63;;
20844;SDS011;10583;49.084;8.646;2023-07-08T14:19:35;3.20;;;3.20;;
20844;SDS011;10583;49.084;8.646;2023-07-08T14:24:51;3.17;;;3.17;;
20844;SDS011;10583;49.084;8.646;2023-07-08T14:27:18;3.05;;;3.05;;
20844;SDS011;10583;49.084;8.646;2023-07-08T14:29:46;3.45;;;3.45;;
20844;SDS011;10583;49.084;8.646;2023-07-08T14:32:15;2.85;;;2.85;;
20844;SDS011;10583;49.084;8.646;2023-07-08T14:34:48;2.78;;;2.78;;
20844;SDS011;10583;49.084;8.646;2023-07-08T14:37:17;2.58;;;2.58;;
20844;SDS011;10583;49.084;8.646;2023-07-08T14:39:43;2.60;;;2.60;;
20844;SDS011;10583;49.084;8.646;2023-07-08T14:42:12;2.88;;;2.88;;
20844;SDS011;10583;49.084;8.646;2023-07-08T14:44:42;2.67;;;2.67;;
20844;SDS011;10583;49.084;8.646;2023-07-08T14:47:10;2.42;;;2.42;;
20844;SDS011;10583;49.084;8.646;2023-07-08T14:49:38;2.90;;;2.90;;
20844;SDS011;10583;49.084;8.646;2023-07-08T14:52:06;2.70;;;2.70;;
20844;SDS011;10583;49.084;8.646;2023-07-08T14:54:33;2.70;;;2.70;;
20844;SDS011;10583;49.084;8.646;2023-07-08T14:57:00;2.88;;;2.88;;
20844;SDS011;10583;49.084;8.646;2023-07-08T14:59:30;2.97;;;2.97;;
20844;SDS011;10583;49.084;8.646;2023-07-08T15:01:58;2.80;;;2.80;;
20844;SDS011;10583;49.084;8.646;2023-07-08T15:04:26;2.83;;;2.83;;
20844;SDS011;10583;49.084;8.646;2023-07-08T15:06:53;2.60;;;2.60;;
20844;SDS011;10583;49.084;8.646;2023-07-08T15:09:23;2.50;;;2.50;;